Airfield :
LOGIN :

Register | Disclaimer

   EN    FR    IT 

 










Legend :    VFR   Marginal VFR   IFR   Intensive IFR   Very Intensive IFR
Visi :
Ceiling :
>= 8 km
>= 3000ft
5 to 8 km
1000 to 3000 ft
1500m to 5 km
500 to 1000 ft
800 to 1500m
200 to 500 ft
< 800m
< 200 ft
Symbols :   Thunderstorms  Fog  Heavy snow  Heavy precipitations  Wind > 20 kt
SIGMETs :     Misc.  Thunderstorms  Icing  Turbulence  Mountain Waves  Volcanic Ashes







- Airport Elevation : 357 ft
- IATA code : TUF
- Download approach charts


LFOT - Tours

CURRENT METAR :
  • 152030Z AUTO VRB03KT CAVOK 23/11 Q1022 NOSIG

EXPIRED METARs :
  • 152000Z AUTO 01004KT 330V040 CAVOK 23/12 Q1021 NOSIG
  • 151930Z AUTO 01003KT CAVOK 24/12 Q1021 NOSIG
  • 151900Z AUTO VRB03KT CAVOK 25/12 Q1021 NOSIG
  • 151830Z AUTO VRB02KT CAVOK 26/11 Q1021 NOSIG
  • 151800Z AUTO VRB03KT CAVOK 27/11 Q1021 NOSIG

TAF TAF LFOT
Valid from the 15 at 18:00 until the 16 at 18:00 UTC


151700Z 1518/1618 02005KT CAVOK
No reported NOTAMs for that airfield.



MET'MAP, your aeronautical weather chart ! - Copyright ORBIFLY December 2007 - Disclaimer

ORBIFLY MET'MAP TEAM :

Programming & Development : Alexandra Zaïnal
Concept & Development : Baudouin d'Aumeries
Co-Development & Prog : Marc-Olivier Méhu
Technical & hardware support : Manuel Goepfert

Contact : metmap@orbifly.com




SOURCES & CREDITS :

   NOAA